Time;durP1;ratioP1;P1;durP2;ratioP2;P2;SDS_P1;SDS_P2;PMS_P1;PMS_P2;Temp;Humidity;BMP_temperature;BMP_pressure;BME280_temperature;BME280_humidity;BME280_pressure;Samples;Min_cycle;Max_cycle;Signal;HPM_P1;HPM_P2
2021/05/24 00:00:12;;;;;;;15.32;5.20;;;;;;;7.92;92.57;96065.09;1052985;28;20468;-48
2021/05/24 00:00:45;;;;;;;12.88;5.43;;;;;;;7.89;92.96;96063.63;1053265;28;20016;-50
2021/05/24 00:01:15;;;;;;;11.80;5.55;;;;;;;7.93;92.77;96064.09;1053159;28;20024;-49
2021/05/24 00:01:46;;;;;;;10.37;5.50;;;;;;;7.88;92.79;96061.19;1052950;28;20017;-49
2021/05/24 00:02:16;;;;;;;11.40;5.60;;;;;;;7.90;92.80;96062.63;1052831;28;20027;-50
2021/05/24 00:02:47;;;;;;;11.87;5.33;;;;;;;7.91;92.45;96063.44;1052642;28;20141;-50
2021/05/24 00:03:17;;;;;;;10.57;4.23;;;;;;;7.91;92.52;96061.66;1048742;28;20491;-50
2021/05/24 00:03:48;;;;;;;8.23;4.70;;;;;;;7.92;92.83;96062.47;1052956;28;20364;-50
2021/05/24 00:04:18;;;;;;;10.13;4.83;;;;;;;7.94;92.01;96065.69;1052554;28;20017;-48
2021/05/24 00:04:48;;;;;;;11.03;5.17;;;;;;;8.03;92.03;96069.06;1052863;28;20016;-49
2021/05/24 00:05:38;;;;;;;13.00;5.17;;;;;;;8.04;91.79;96061.00;1053211;28;20020;-50
2021/05/24 00:06:08;;;;;;;9.95;4.97;;;;;;;8.07;91.25;96060.66;1053097;28;20019;-51
2021/05/24 00:06:38;;;;;;;8.40;4.47;;;;;;;8.11;90.96;96061.13;1052958;28;20012;-49
2021/05/24 00:07:09;;;;;;;8.73;4.63;;;;;;;8.10;91.14;96059.50;1053265;28;20016;-49
2021/05/24 00:07:40;;;;;;;10.93;4.90;;;;;;;8.03;91.44;96053.31;1053173;28;20027;-51
2021/05/24 00:08:10;;;;;;;12.10;4.97;;;;;;;8.00;91.50;96051.88;1052996;28;20369;-54
2021/05/24 00:08:41;;;;;;;11.37;5.50;;;;;;;8.03;91.49;96058.56;1052631;28;20469;-52
2021/05/24 00:09:11;;;;;;;8.30;4.20;;;;;;;8.02;91.20;96055.16;1048459;28;20055;-52
2021/05/24 00:09:42;;;;;;;11.80;5.23;;;;;;;8.04;90.48;96054.97;1048693;28;20016;-50
2021/05/24 00:10:15;;;;;;;10.47;5.00;;;;;;;8.03;90.88;96053.31;1044476;28;20061;-48
2021/05/24 00:10:46;;;;;;;11.00;5.50;;;;;;;7.96;91.18;96055.88;1049183;28;20025;-47
2021/05/24 00:11:18;;;;;;;9.90;4.40;;;;;;;7.98;91.35;96056.50;1052641;28;20372;-50
2021/05/24 00:11:51;;;;;;;9.80;4.63;;;;;;;8.00;90.11;96055.31;1049559;28;20410;-48
2021/05/24 00:12:26;;;;;;;11.88;5.00;;;;;;;8.03;90.12;96048.09;1052685;28;20019;-48
2021/05/24 00:13:00;;;;;;;13.10;4.85;;;;;;;7.94;90.93;96055.22;1052815;28;20384;-49
2021/05/24 00:13:30;;;;;;;12.45;4.63;;;;;;;7.96;91.13;96051.44;1052879;28;20016;-51
2021/05/24 00:14:03;;;;;;;11.23;4.57;;;;;;;8.01;90.48;96049.06;1053250;28;20020;-50
2021/05/24 00:14:38;;;;;;;9.20;4.68;;;;;;;7.98;90.40;96044.19;1052417;28;20062;-48
2021/05/24 00:15:09;;;;;;;9.38;4.50;;;;;;;7.96;90.37;96045.38;1052587;28;20017;-50
2021/05/24 00:15:41;;;;;;;8.90;5.07;;;;;;;7.94;91.18;96042.94;1052622;28;20012;-51
2021/05/24 00:16:12;;;;;;;8.88;5.10;;;;;;;7.91;91.29;96035.44;1052639;28;20076;-48
2021/05/24 00:16:42;;;;;;;9.27;4.90;;;;;;;7.90;90.98;96040.88;1052912;28;20016;-51
2021/05/24 00:17:13;;;;;;;9.50;4.67;;;;;;;7.88;91.48;96041.03;1053245;28;20020;-51
2021/05/24 00:17:43;;;;;;;9.63;4.63;;;;;;;7.88;91.32;96041.03;1053030;28;20016;-51
2021/05/24 00:18:14;;;;;;;8.97;4.47;;;;;;;7.85;91.44;96041.41;1052630;28;20012;-51
2021/05/24 00:18:50;;;;;;;9.90;5.10;;;;;;;7.84;92.22;96042.38;1052730;28;20012;-52
2021/05/24 00:19:20;;;;;;;9.27;4.88;;;;;;;7.87;91.76;96038.59;1052779;28;20012;-48
2021/05/24 00:19:51;;;;;;;10.53;4.93;;;;;;;7.81;92.03;96033.06;1052724;28;20101;-50
2021/05/24 00:20:26;;;;;;;8.63;4.50;;;;;;;7.77;92.33;96030.97;1052958;28;20036;-51
2021/05/24 00:20:59;;;;;;;10.80;4.70;;;;;;;7.71;93.07;96031.72;1053049;28;20480;-52
2021/05/24 00:21:30;;;;;;;11.20;4.80;;;;;;;7.75;92.68;96027.75;1052923;28;20020;-51
2021/05/24 00:22:00;;;;;;;11.50;4.97;;;;;;;7.73;92.93;96033.16;1052956;28;20393;-50
2021/05/24 00:22:31;;;;;;;8.60;4.47;;;;;;;7.75;93.28;96023.31;1053098;28;20012;-50
2021/05/24 00:23:02;;;;;;;15.03;4.90;;;;;;;7.76;94.16;96021.50;1053144;28;20008;-49
2021/05/24 00:23:32;;;;;;;11.50;5.40;;;;;;;7.76;93.63;96021.50;1052882;28;20020;-48
2021/05/24 00:24:03;;;;;;;9.10;4.60;;;;;;;7.74;93.37;96015.63;1052896;28;20020;-49
2021/05/24 00:24:33;;;;;;;13.67;4.47;;;;;;;7.77;93.33;96021.34;1052289;28;20020;-49
2021/05/24 00:25:05;;;;;;;8.23;4.60;;;;;;;7.76;93.12;96017.06;1052604;28;20043;-48
2021/05/24 00:25:35;;;;;;;8.90;4.75;;;;;;;7.76;93.50;96017.06;1052707;28;20023;-48
2021/05/24 00:26:06;;;;;;;10.63;4.63;;;;;;;7.75;93.27;96015.44;1048732;28;20009;-48
2021/05/24 00:26:37;;;;;;;12.70;5.13;;;;;;;7.77;92.99;96013.47;1052568;28;20448;-48
2021/05/24 00:27:07;;;;;;;10.73;4.90;;;;;;;7.78;92.99;96016.91;1048467;28;20088;-49
2021/05/24 00:27:38;;;;;;;10.73;5.13;;;;;;;7.78;92.87;96017.69;1044204;28;20496;-49
2021/05/24 00:28:12;;;;;;;12.13;5.33;;;;;;;7.76;92.78;96014.47;1048404;28;20099;-49
2021/05/24 00:28:43;;;;;;;13.25;5.32;;;;;;;7.82;92.63;96013.72;1049130;28;20020;-48
2021/05/24 00:29:19;;;;;;;8.83;4.83;;;;;;;7.81;92.97;96013.91;1052626;28;20048;-48
2021/05/24 00:29:50;;;;;;;11.40;5.35;;;;;;;7.82;93.07;96010.31;1052860;28;20084;-49
2021/05/24 00:30:21;;;;;;;10.45;4.97;;;;;;;7.80;93.00;96004.41;1052750;28;20020;-47
2021/05/24 00:30:51;;;;;;;8.80;4.77;;;;;;;7.80;92.71;96005.25;1052747;28;20111;-48
2021/05/24 00:31:22;;;;;;;11.07;4.70;;;;;;;7.77;92.84;96004.78;1052765;28;20506;-50
2021/05/24 00:31:53;;;;;;;11.03;4.83;;;;;;;7.77;93.32;96008.22;1052903;28;20526;-49
2021/05/24 00:32:23;;;;;;;9.63;4.43;;;;;;;7.79;93.26;96008.06;1052902;28;20051;-50
2021/05/24 00:32:54;;;;;;;11.20;4.93;;;;;;;7.77;93.48;96010.03;1052901;28;20020;-49
2021/05/24 00:33:24;;;;;;;8.17;4.37;;;;;;;7.76;93.98;96016.28;1052850;28;20103;-49
2021/05/24 00:33:55;;;;;;;10.20;4.37;;;;;;;7.77;93.56;96007.41;1052897;28;20470;-48
2021/05/24 00:34:25;;;;;;;12.73;4.13;;;;;;;7.79;93.13;96010.69;1052648;28;20024;-49
2021/05/24 00:34:56;;;;;;;9.67;4.30;;;;;;;7.78;93.22;96012.47;1052962;28;20008;-48
2021/05/24 00:35:26;;;;;;;6.87;4.17;;;;;;;7.77;93.21;96005.59;1052731;28;20016;-48
2021/05/24 00:35:57;;;;;;;11.37;4.73;;;;;;;7.77;93.64;96018.72;1052856;28;20073;-49
2021/05/24 00:36:27;;;;;;;7.57;4.40;;;;;;;7.76;93.37;96009.22;1052693;28;20361;-48
2021/05/24 00:36:58;;;;;;;7.77;3.57;;;;;;;7.82;92.49;96007.69;1052475;28;20097;-50
2021/05/24 00:37:28;;;;;;;6.83;3.33;;;;;;;7.86;91.29;96002.88;1052573;28;20016;-49
2021/05/24 00:37:59;;;;;;;9.03;3.57;;;;;;;7.89;90.77;96018.25;1052476;28;20012;-48
2021/05/24 00:38:30;;;;;;;10.13;4.20;;;;;;;7.92;91.31;96007.41;1052559;28;20016;-48
2021/05/24 00:39:00;;;;;;;9.97;4.17;;;;;;;7.86;91.77;96011.56;1052855;28;20091;-48
2021/05/24 00:39:31;;;;;;;9.27;3.80;;;;;;;7.89;91.33;96013.00;1052689;28;20021;-48
2021/05/24 00:40:02;;;;;;;6.77;3.57;;;;;;;7.88;89.92;96011.38;1052931;28;20099;-48
2021/05/24 00:40:33;;;;;;;8.13;3.80;;;;;;;7.86;90.30;96008.13;1053536;28;20020;-48
2021/05/24 00:41:04;;;;;;;7.72;3.80;;;;;;;7.85;90.97;96009.94;1053611;28;20024;-48
2021/05/24 00:41:36;;;;;;;6.33;3.57;;;;;;;7.86;91.03;96001.06;1053204;28;20020;-49
2021/05/24 00:42:07;;;;;;;10.70;4.57;;;;;;;7.83;91.33;96002.28;1049035;28;20350;-48
2021/05/24 00:42:37;;;;;;;8.43;3.77;;;;;;;7.82;91.14;95998.00;1048967;28;20071;-49
2021/05/24 00:43:08;;;;;;;6.87;3.60;;;;;;;7.76;91.11;95996.13;1045238;28;20426;-49
2021/05/24 00:43:38;;;;;;;8.93;4.00;;;;;;;7.74;91.78;95994.66;1049040;28;20047;-51
2021/05/24 00:44:09;;;;;;;7.83;4.00;;;;;;;7.74;91.84;95998.06;1040902;28;20029;-49
2021/05/24 00:44:39;;;;;;;6.97;3.77;;;;;;;7.71;92.16;95998.44;1040998;28;20013;-49
2021/05/24 00:45:10;;;;;;;7.87;4.00;;;;;;;7.71;92.47;95995.81;1049129;28;20073;-51
2021/05/24 00:45:41;;;;;;;8.07;3.90;;;;;;;7.74;91.95;95997.28;1049113;28;20032;-48
2021/05/24 00:46:11;;;;;;;8.57;4.17;;;;;;;7.65;92.10;95994.75;1053471;28;20043;-50
2021/05/24 00:46:42;;;;;;;7.30;3.80;;;;;;;7.62;92.88;96002.13;1053373;28;20057;-48
2021/05/24 00:47:12;;;;;;;6.87;4.00;;;;;;;7.64;92.60;96002.78;1053695;28;20013;-48
2021/05/24 00:47:43;;;;;;;7.63;3.80;;;;;;;7.62;92.62;95997.72;1053472;28;20027;-48
2021/05/24 00:48:13;;;;;;;9.40;4.10;;;;;;;7.58;92.98;95998.28;1053581;28;20019;-48
2021/05/24 00:48:44;;;;;;;6.63;3.77;;;;;;;7.58;93.16;95998.28;1053462;28;20456;-48
2021/05/24 00:49:14;;;;;;;8.70;3.57;;;;;;;7.54;93.47;96000.41;1053065;28;20050;-49
2021/05/24 00:49:45;;;;;;;6.23;3.50;;;;;;;7.55;92.76;95996.81;1048896;28;20460;-48
2021/05/24 00:50:15;;;;;;;6.20;3.50;;;;;;;7.58;92.59;95999.06;1049046;28;20048;-48
2021/05/24 00:50:46;;;;;;;6.43;3.73;;;;;;;7.57;92.53;96001.88;1049071;28;20020;-49
2021/05/24 00:51:16;;;;;;;9.83;4.23;;;;;;;7.58;92.21;95996.47;1053229;28;20016;-48
2021/05/24 00:51:47;;;;;;;7.37;3.90;;;;;;;7.60;91.85;95997.06;1053470;28;20029;-52
2021/05/24 00:52:18;;;;;;;9.30;3.50;;;;;;;7.59;91.85;95995.47;1053602;28;20047;-49
2021/05/24 00:52:51;;;;;;;6.27;3.77;;;;;;;7.56;92.01;95995.00;1053052;28;20020;-50
2021/05/24 00:53:21;;;;;;;7.45;3.75;;;;;;;7.59;91.72;95997.25;1053169;28;20020;-49
2021/05/24 00:53:52;;;;;;;10.43;3.70;;;;;;;7.55;91.87;95988.16;1053020;28;20031;-49
2021/05/24 00:54:22;;;;;;;8.27;3.80;;;;;;;7.55;92.52;95990.78;1052943;28;20028;-48
2021/05/24 00:54:53;;;;;;;7.70;4.00;;;;;;;7.53;93.02;95985.72;1053480;28;20020;-50
2021/05/24 00:55:23;;;;;;;6.27;3.70;;;;;;;7.55;92.37;95980.28;1053374;28;20032;-48
2021/05/24 00:55:54;;;;;;;8.53;3.47;;;;;;;7.54;92.26;95986.50;1053472;28;20050;-50
2021/05/24 00:56:24;;;;;;;6.77;3.67;;;;;;;7.57;92.14;95983.53;1053038;28;20036;-50
2021/05/24 00:56:57;;;;;;;7.27;3.57;;;;;;;7.55;92.64;95981.09;1053138;28;20141;-50
2021/05/24 00:57:28;;;;;;;6.20;3.92;;;;;;;7.53;93.09;95979.63;1048833;28;20024;-51
2021/05/24 00:57:58;;;;;;;9.80;4.13;;;;;;;7.53;92.99;95985.72;1045155;28;20049;-48
2021/05/24 00:58:29;;;;;;;7.37;4.00;;;;;;;7.56;92.47;95980.13;1044766;28;20416;-50
2021/05/24 00:58:59;;;;;;;8.60;4.00;;;;;;;7.57;92.03;95984.34;1036493;28;20025;-50
2021/05/24 00:59:30;;;;;;;5.70;3.50;;;;;;;7.58;92.59;95978.13;1040764;28;20025;-50
2021/05/24 01:00:00;;;;;;;6.70;3.67;;;;;;;7.60;92.79;95986.59;1044912;28;20075;-49
2021/05/24 01:00:42;;;;;;;6.67;3.60;;;;;;;7.63;92.25;95986.25;1049133;28;20028;-50
2021/05/24 01:01:12;;;;;;;7.55;3.60;;;;;;;7.62;92.25;95981.19;1057241;28;20428;-49
2021/05/24 01:01:42;;;;;;;7.77;3.70;;;;;;;7.64;92.38;95979.22;1057384;28;20020;-51
2021/05/24 01:02:13;;;;;;;7.33;3.67;;;;;;;7.63;92.51;95978.38;1057361;28;20051;-49
2021/05/24 01:02:43;;;;;;;7.83;3.80;;;;;;;7.60;92.74;95980.56;1057387;28;20448;-49
2021/05/24 01:03:14;;;;;;;7.53;3.80;;;;;;;7.58;92.87;95983.34;1053406;28;20380;-49
2021/05/24 01:03:45;;;;;;;7.80;3.40;;;;;;;7.57;93.30;95976.47;1053442;28;20020;-50
2021/05/24 01:04:17;;;;;;;9.10;3.47;;;;;;;7.60;92.72;95983.97;1057235;28;20020;-49
2021/05/24 01:04:48;;;;;;;8.18;4.00;;;;;;;7.59;92.54;95984.16;1057352;28;20443;-48
2021/05/24 01:05:18;;;;;;;6.10;3.70;;;;;;;7.60;92.64;95985.78;1057347;28;20020;-49
2021/05/24 01:05:49;;;;;;;6.70;3.50;;;;;;;7.61;92.27;95984.81;1056845;28;20499;-52
2021/05/24 01:06:20;;;;;;;6.93;3.73;;;;;;;7.59;92.44;95982.38;1053421;28;20020;-50
2021/05/24 01:06:50;;;;;;;7.37;4.07;;;;;;;7.59;92.55;95978.91;1057351;28;20041;-49
2021/05/24 01:07:21;;;;;;;7.27;3.93;;;;;;;7.60;92.24;95983.19;1057388;28;20248;-49
2021/05/24 01:07:51;;;;;;;7.57;3.90;;;;;;;7.60;92.43;95976.13;1057299;28;20024;-51
2021/05/24 01:08:22;;;;;;;7.73;3.60;;;;;;;7.59;92.48;95974.50;1053144;28;20020;-50
2021/05/24 01:08:52;;;;;;;8.43;3.50;;;;;;;7.58;92.45;95977.31;1048923;28;20062;-49
2021/05/24 01:09:23;;;;;;;7.00;3.90;;;;;;;7.57;92.65;95976.47;1049102;28;20012;-49
2021/05/24 01:09:53;;;;;;;7.30;3.67;;;;;;;7.54;92.88;95973.41;1048919;28;20412;-51
2021/05/24 01:10:24;;;;;;;7.37;3.80;;;;;;;7.50;93.56;95969.53;1048942;28;20036;-49
2021/05/24 01:10:55;;;;;;;9.70;3.57;;;;;;;7.47;94.18;95971.50;1044674;28;20029;-49
2021/05/24 01:11:25;;;;;;;7.77;3.50;;;;;;;7.45;94.44;95962.19;1044727;28;20064;-52
2021/05/24 01:11:56;;;;;;;6.90;3.80;;;;;;;7.43;94.79;95967.63;1044929;28;20457;-49
2021/05/24 01:12:26;;;;;;;8.87;4.20;;;;;;;7.42;94.43;95965.97;1049133;28;20025;-50
2021/05/24 01:12:57;;;;;;;8.67;3.87;;;;;;;7.41;94.64;95967.00;1057236;28;20024;-50
2021/05/24 01:13:28;;;;;;;7.32;3.80;;;;;;;7.39;94.58;95968.16;1057347;28;20050;-49
2021/05/24 01:14:00;;;;;;;9.93;3.50;;;;;;;7.40;94.89;95961.94;1057147;28;20023;-51
2021/05/24 01:14:31;;;;;;;7.35;3.55;;;;;;;7.40;94.97;95962.75;1053259;28;20028;-51
2021/05/24 01:15:02;;;;;;;6.97;3.70;;;;;;;7.39;94.68;95955.84;1053336;28;20055;-53
2021/05/24 01:15:32;;;;;;;7.77;3.50;;;;;;;7.38;95.10;95959.50;1048864;28;20016;-50
2021/05/24 01:16:03;;;;;;;5.40;3.25;;;;;;;7.41;95.12;95956.50;1048903;28;20021;-53
2021/05/24 01:16:34;;;;;;;7.53;3.57;;;;;;;7.42;95.60;95952.06;1048837;28;20016;-50
2021/05/24 01:17:04;;;;;;;6.17;3.33;;;;;;;7.43;96.08;95953.72;1045067;28;20040;-50
2021/05/24 01:17:35;;;;;;;7.10;3.70;;;;;;;7.42;96.01;95952.06;1053091;28;20012;-51
2021/05/24 01:18:06;;;;;;;7.03;3.20;;;;;;;7.41;95.21;95956.50;1053001;28;20072;-50
2021/05/24 01:18:36;;;;;;;6.17;3.33;;;;;;;7.38;94.41;95959.50;1048987;28;20016;-51
2021/05/24 01:19:06;;;;;;;6.77;3.27;;;;;;;7.39;94.60;95953.25;1053242;28;20475;-50
2021/05/24 01:19:45;;;;;;;7.67;3.47;;;;;;;7.40;95.03;95956.69;1053158;28;20024;-49
2021/05/24 01:20:15;;;;;;;7.97;3.42;;;;;;;7.40;94.76;95948.84;1052991;28;20028;-52
2021/05/24 01:20:46;;;;;;;6.17;3.30;;;;;;;7.39;95.30;95945.38;1053289;28;20012;-50
2021/05/24 01:21:16;;;;;;;6.37;3.37;;;;;;;7.41;94.82;95946.03;1053399;28;20008;-49
2021/05/24 01:21:47;;;;;;;5.70;2.80;;;;;;;7.40;94.76;95944.41;1053037;28;20112;-48
2021/05/24 01:22:20;;;;;;;5.90;3.40;;;;;;;7.40;94.64;95936.53;1053063;28;20016;-50
2021/05/24 01:22:58;;;;;;;6.78;3.38;;;;;;;7.40;95.35;95941.78;1053085;28;20070;-51
2021/05/24 01:23:29;;;;;;;7.97;3.42;;;;;;;7.45;95.01;95938.63;1050346;28;20012;-48
2021/05/24 01:24:00;;;;;;;7.00;3.80;;;;;;;7.45;94.63;95936.00;1052964;28;20043;-47
2021/05/24 01:24:31;;;;;;;9.23;3.78;;;;;;;7.45;94.17;95938.63;1052835;28;20098;-48
2021/05/24 01:25:01;;;;;;;6.13;3.37;;;;;;;7.46;94.56;95933.19;1052999;28;20032;-48
2021/05/24 01:25:34;;;;;;;11.27;3.57;;;;;;;7.47;94.41;95939.28;1053460;28;20024;-52
2021/05/24 01:26:04;;;;;;;4.90;3.05;;;;;;;7.47;94.20;95941.91;1053259;28;20487;-48
2021/05/24 01:26:34;;;;;;;6.00;3.63;;;;;;;7.49;93.67;95941.72;1053013;28;20020;-48
2021/05/24 01:27:05;;;;;;;8.93;4.53;;;;;;;7.49;93.40;95932.03;1053179;28;20016;-49
2021/05/24 01:27:36;;;;;;;6.93;3.70;;;;;;;7.51;93.62;95939.72;1052872;28;20078;-48
2021/05/24 01:28:06;;;;;;;7.43;3.87;;;;;;;7.51;93.40;95931.84;1053023;28;20043;-48
2021/05/24 01:28:37;;;;;;;8.60;3.97;;;;;;;7.48;93.17;95930.41;1053323;28;20019;-48
2021/05/24 01:29:07;;;;;;;9.03;3.87;;;;;;;7.42;93.64;95937.16;1053415;28;20027;-47
2021/05/24 01:29:38;;;;;;;9.10;4.07;;;;;;;7.41;93.77;95935.56;1053330;28;20012;-48
2021/05/24 01:30:09;;;;;;;5.73;3.70;;;;;;;7.43;93.28;95922.28;1053350;28;20050;-48
2021/05/24 01:30:40;;;;;;;8.88;3.50;;;;;;;7.42;93.21;95931.13;1053262;28;20117;-49
2021/05/24 01:31:10;;;;;;;9.57;3.60;;;;;;;7.39;93.65;95929.66;1053411;28;20097;-48
2021/05/24 01:31:41;;;;;;;7.17;3.73;;;;;;;7.41;93.40;95932.94;1053377;28;20020;-49
2021/05/24 01:32:11;;;;;;;6.57;3.70;;;;;;;7.39;93.82;95934.91;1053397;28;20024;-49
2021/05/24 01:32:42;;;;;;;5.93;3.60;;;;;;;7.40;94.05;95931.31;1053372;28;20019;-48
2021/05/24 01:33:12;;;;;;;7.70;3.73;;;;;;;7.42;93.77;95929.31;1052870;28;20102;-48
2021/05/24 01:33:43;;;;;;;6.57;3.20;;;;;;;7.45;93.54;95917.66;1052961;28;20020;-49
2021/05/24 01:34:13;;;;;;;8.93;3.53;;;;;;;7.45;93.01;95917.66;1048700;28;20416;-48
2021/05/24 01:34:44;;;;;;;7.70;3.73;;;;;;;7.44;92.75;95923.91;1048900;28;20067;-50
2021/05/24 01:35:14;;;;;;;7.77;3.60;;;;;;;7.39;93.38;95921.00;1053120;28;20013;-48
2021/05/24 01:35:45;;;;;;;9.17;3.43;;;;;;;7.36;94.00;95924.78;1052945;28;20081;-49
2021/05/24 01:36:15;;;;;;;6.87;3.33;;;;;;;7.34;94.25;95923.38;1057278;28;20204;-48
2021/05/24 01:36:46;;;;;;;6.40;3.40;;;;;;;7.31;94.23;95924.53;1053005;28;20095;-49
2021/05/24 01:37:16;;;;;;;8.03;3.43;;;;;;;7.34;93.78;95929.41;1053133;28;20020;-48
2021/05/24 01:37:47;;;;;;;5.93;3.33;;;;;;;7.35;93.34;95924.97;1049020;28;20031;-48
2021/05/24 01:38:17;;;;;;;6.93;3.13;;;;;;;7.32;93.33;95936.63;1049075;28;20102;-47
2021/05/24 01:38:48;;;;;;;6.50;3.40;;;;;;;7.34;93.48;95934.66;1048812;28;20046;-48
2021/05/24 01:39:19;;;;;;;7.23;3.27;;;;;;;7.38;93.12;95938.53;1049865;28;20039;-48
2021/05/24 01:39:50;;;;;;;8.45;3.53;;;;;;;7.39;92.93;95934.09;1052993;28;20028;-49
2021/05/24 01:40:21;;;;;;;6.77;3.10;;;;;;;7.40;92.52;95936.53;1053867;28;20032;-48
2021/05/24 01:40:51;;;;;;;6.03;3.23;;;;;;;7.41;92.71;95930.31;1053291;28;20413;-50
2021/05/24 01:41:22;;;;;;;5.00;3.00;;;;;;;7.41;92.36;95929.50;1053516;28;20020;-48
2021/05/24 01:41:52;;;;;;;5.30;2.93;;;;;;;7.41;92.45;95932.09;1053319;28;20020;-48
2021/05/24 01:42:23;;;;;;;5.97;3.07;;;;;;;7.39;92.70;95927.06;1053124;28;20487;-50
2021/05/24 01:42:55;;;;;;;6.37;2.80;;;;;;;7.37;92.71;95923.00;1053063;28;20074;-49
2021/05/24 01:43:28;;;;;;;5.22;2.80;;;;;;;7.37;92.73;95920.38;1053322;28;20384;-50
2021/05/24 01:43:58;;;;;;;8.82;3.28;;;;;;;7.38;92.62;95922.00;1053249;28;20052;-50
2021/05/24 01:44:31;;;;;;;7.47;3.50;;;;;;;7.31;94.06;95918.47;1053537;28;20024;-49
2021/05/24 01:45:02;;;;;;;6.20;3.08;;;;;;;7.25;93.81;95918.19;1053372;28;20059;-48
2021/05/24 01:45:32;;;;;;;6.87;3.13;;;;;;;7.27;93.23;95920.63;1053232;28;20036;-49
2021/05/24 01:46:03;;;;;;;6.67;3.60;;;;;;;7.25;93.17;95926.03;1053193;28;20508;-49
2021/05/24 01:46:33;;;;;;;11.63;5.10;;;;;;;7.30;93.12;95928.13;1048877;28;20059;-49
2021/05/24 01:47:04;;;;;;;8.17;5.50;;;;;;;7.36;92.84;95929.22;1048965;28;20027;-49
2021/05/24 01:47:34;;;;;;;8.33;5.27;;;;;;;7.38;92.71;95932.47;1053093;28;20521;-50
2021/05/24 01:48:05;;;;;;;8.73;4.83;;;;;;;7.34;92.32;95929.41;1053250;28;20349;-48
2021/05/24 01:48:36;;;;;;;13.33;6.17;;;;;;;7.24;93.13;95929.69;1053074;28;20028;-48
2021/05/24 01:49:07;;;;;;;10.83;5.40;;;;;;;7.19;93.82;95934.63;1053422;28;20031;-49
2021/05/24 01:49:37;;;;;;;13.47;6.27;;;;;;;7.21;93.67;95929.19;1053421;28;20106;-48
2021/05/24 01:50:08;;;;;;;13.17;6.93;;;;;;;7.27;93.69;95928.47;1053359;28;20059;-49
2021/05/24 01:50:39;;;;;;;11.27;6.97;;;;;;;7.26;93.28;95926.88;1053247;28;20032;-48
2021/05/24 01:51:09;;;;;;;12.73;6.90;;;;;;;7.21;93.83;95926.59;1052892;28;20103;-50
2021/05/24 01:51:40;;;;;;;11.97;7.00;;;;;;;7.23;93.60;95922.00;1053641;28;20020;-48
2021/05/24 01:52:10;;;;;;;10.87;6.37;;;;;;;7.23;93.36;95917.56;1052938;28;20065;-49
2021/05/24 01:52:41;;;;;;;11.43;6.50;;;;;;;7.22;93.56;95915.13;1052770;28;20173;-49
2021/05/24 01:53:12;;;;;;;11.35;6.30;;;;;;;7.20;94.42;95910.06;1053204;28;20081;-50
2021/05/24 01:53:42;;;;;;;10.97;6.27;;;;;;;7.21;94.63;95916.09;1053150;28;20112;-49
2021/05/24 01:54:13;;;;;;;16.03;6.33;;;;;;;7.21;94.88;95909.09;1056856;28;20452;-49
2021/05/24 01:54:45;;;;;;;12.02;6.85;;;;;;;7.16;95.29;95908.00;1057145;28;20211;-49
2021/05/24 01:55:15;;;;;;;13.43;6.45;;;;;;;7.10;95.29;95910.31;1057125;28;20135;-51
2021/05/24 01:55:46;;;;;;;10.97;5.30;;;;;;;7.14;94.51;95905.56;1056836;28;20489;-49
2021/05/24 01:56:16;;;;;;;9.50;6.00;;;;;;;7.16;93.91;95906.16;1052814;28;20016;-49
2021/05/24 01:56:47;;;;;;;11.70;5.80;;;;;;;7.21;94.32;95908.25;1052854;28;20016;-49
2021/05/24 01:57:17;;;;;;;10.10;5.50;;;;;;;7.21;93.99;95903.84;1052877;28;20020;-50
2021/05/24 01:57:48;;;;;;;11.20;5.73;;;;;;;7.25;93.82;95906.91;1052889;28;20066;-49
2021/05/24 01:58:19;;;;;;;12.43;6.20;;;;;;;7.24;93.53;95908.72;1053153;28;20023;-49
2021/05/24 01:58:49;;;;;;;11.70;5.65;;;;;;;7.27;93.85;95902.28;1053203;28;20024;-49
2021/05/24 01:59:21;;;;;;;10.20;5.93;;;;;;;7.24;94.55;95910.50;1053288;28;20058;-49
2021/05/24 01:59:51;;;;;;;10.35;5.75;;;;;;;7.21;94.65;95908.25;1053194;28;20376;-49
2021/05/24 02:00:23;;;;;;;9.77;5.33;;;;;;;7.20;94.87;95906.66;1052795;28;20024;-50
2021/05/24 02:01:04;;;;;;;9.27;4.90;;;;;;;7.20;94.87;95901.41;1052861;28;20018;-50
2021/05/24 02:01:35;;;;;;;11.25;5.53;;;;;;;7.22;94.90;95896.81;1052803;28;20476;-50
2021/05/24 02:02:06;;;;;;;10.43;5.37;;;;;;;7.24;94.46;95892.19;1048626;28;20017;-49
2021/05/24 02:02:39;;;;;;;9.00;4.40;;;;;;;7.29;93.93;95889.84;1048716;28;20016;-48
2021/05/24 02:03:10;;;;;;;9.70;4.68;;;;;;;7.31;93.65;95887.84;1049190;28;20068;-49
2021/05/24 02:03:41;;;;;;;9.27;5.10;;;;;;;7.27;93.72;95883.97;1052975;28;20393;-50
2021/05/24 02:04:11;;;;;;;11.20;5.22;;;;;;;7.29;94.33;95888.03;1052675;28;20119;-50
2021/05/24 02:04:42;;;;;;;9.07;5.30;;;;;;;7.27;94.27;95887.41;1048628;28;20040;-50
2021/05/24 02:05:13;;;;;;;11.00;5.80;;;;;;;7.27;94.91;95897.06;1048589;28;20051;-49
2021/05/24 02:05:43;;;;;;;10.80;5.20;;;;;;;7.27;94.75;95897.91;1044834;28;20025;-48
2021/05/24 02:06:14;;;;;;;10.30;5.07;;;;;;;7.31;94.59;95897.53;1044644;28;20013;-48
2021/05/24 02:06:44;;;;;;;9.53;5.33;;;;;;;7.31;94.11;95895.72;1048753;28;20396;-47
2021/05/24 02:07:15;;;;;;;8.80;4.63;;;;;;;7.33;94.09;95893.72;1048884;28;20466;-49
2021/05/24 02:07:46;;;;;;;8.67;4.47;;;;;;;7.32;93.81;95892.13;1048933;28;20020;-48
2021/05/24 02:08:17;;;;;;;10.35;5.10;;;;;;;7.34;94.32;95890.13;1052934;28;20036;-48
2021/05/24 02:08:47;;;;;;;9.27;4.63;;;;;;;7.33;94.57;95891.09;1052985;28;20043;-48
2021/05/24 02:09:18;;;;;;;11.03;5.13;;;;;;;7.34;93.33;95890.13;1048708;28;20060;-50
2021/05/24 02:09:52;;;;;;;12.43;5.43;;;;;;;7.37;92.68;95886.34;1053023;28;20103;-48
2021/05/24 02:10:24;;;;;;;9.93;4.38;;;;;;;7.36;92.48;95888.13;1052928;28;20033;-49
2021/05/24 02:10:55;;;;;;;9.57;4.70;;;;;;;7.37;92.34;95884.53;1052964;28;20048;-49
2021/05/24 02:11:26;;;;;;;11.97;4.63;;;;;;;7.41;92.31;95885.78;1052831;28;20020;-51
2021/05/24 02:11:56;;;;;;;10.17;4.80;;;;;;;7.43;92.05;95880.38;1052882;28;20488;-49
2021/05/24 02:12:26;;;;;;;12.73;4.63;;;;;;;7.37;92.25;95875.84;1048635;28;20016;-48
2021/05/24 02:12:57;;;;;;;10.10;4.90;;;;;;;7.34;92.98;95882.25;1040410;28;20355;-49
2021/05/24 02:13:28;;;;;;;8.17;4.77;;;;;;;7.33;93.58;95880.63;1044501;28;20021;-49
2021/05/24 02:13:59;;;;;;;12.20;4.68;;;;;;;7.36;93.23;95877.66;1044651;28;20085;-49
2021/05/24 02:14:29;;;;;;;10.30;4.80;;;;;;;7.40;92.54;95878.91;1048680;28;20075;-48
2021/05/24 02:15:00;;;;;;;10.60;4.70;;;;;;;7.41;92.55;95877.09;1052779;28;20023;-48
2021/05/24 02:15:33;;;;;;;8.17;4.83;;;;;;;7.42;93.20;95886.59;1052881;28;20453;-48
2021/05/24 02:16:03;;;;;;;8.90;4.72;;;;;;;7.41;93.22;95882.34;1052955;28;20101;-48
2021/05/24 02:16:41;;;;;;;8.23;4.47;;;;;;;7.40;93.52;95886.78;1053351;28;20027;-48
2021/05/24 02:17:12;;;;;;;8.05;4.25;;;;;;;7.42;93.32;95886.59;1055511;28;20030;-48
2021/05/24 02:17:42;;;;;;;10.47;4.10;;;;;;;7.41;94.09;95885.78;1053182;28;20028;-48
2021/05/24 02:18:13;;;;;;;10.90;4.30;;;;;;;7.42;93.78;95882.16;1053053;28;20020;-50
2021/05/24 02:18:43;;;;;;;7.23;3.43;;;;;;;7.31;93.13;95868.72;1053199;28;20020;-49
2021/05/24 02:19:15;;;;;;;7.00;4.13;;;;;;;7.31;93.75;95881.81;1053076;28;20016;-48
2021/05/24 02:19:48;;;;;;;6.50;3.78;;;;;;;7.31;93.65;95877.38;1053086;28;20071;-48
2021/05/24 02:20:27;;;;;;;7.70;3.80;;;;;;;7.33;93.33;95874.59;1052988;28;20077;-48
2021/05/24 02:20:58;;;;;;;7.95;4.10;;;;;;;7.37;93.14;95871.44;1057019;28;20067;-50
2021/05/24 02:21:28;;;;;;;8.23;3.63;;;;;;;7.40;92.68;95873.69;1057025;28;20035;-50
2021/05/24 02:21:59;;;;;;;7.27;3.50;;;;;;;7.40;92.73;95865.81;1057036;28;20023;-48
2021/05/24 02:22:29;;;;;;;13.13;3.10;;;;;;;7.38;92.74;95862.59;1055658;28;20117;-49
2021/05/24 02:23:01;;;;;;;8.60;3.30;;;;;;;7.37;93.05;95868.81;1053133;28;20024;-49
2021/05/24 02:23:32;;;;;;;7.20;3.60;;;;;;;7.38;92.98;95857.34;1053103;28;20020;-49
2021/05/24 02:24:03;;;;;;;7.57;3.90;;;;;;;7.38;93.16;95856.50;1052670;28;20027;-49
2021/05/24 02:24:34;;;;;;;7.82;3.70;;;;;;;7.37;93.07;95855.72;1052620;28;20020;-51
2021/05/24 02:25:05;;;;;;;5.67;3.47;;;;;;;7.41;92.73;95856.16;1052896;28;20023;-50
2021/05/24 02:25:36;;;;;;;8.68;3.70;;;;;;;7.39;93.92;95855.53;1053137;28;20023;-48
2021/05/24 02:26:07;;;;;;;12.13;3.90;;;;;;;7.44;93.88;95854.00;1056891;28;20041;-48
2021/05/24 02:26:37;;;;;;;8.07;3.37;;;;;;;7.44;93.44;95859.22;1056945;28;20020;-55
2021/05/24 02:27:08;;;;;;;6.27;3.30;;;;;;;7.47;93.25;95847.59;1056762;28;20022;-49
2021/05/24 02:27:39;;;;;;;4.83;2.30;;;;;;;7.55;92.07;95851.91;1052791;28;20111;-48